createdAt,value
2018-01-03T00:00:56.679Z,0
2018-01-03T00:02:06.639Z,0
2018-01-03T00:03:16.071Z,0
2018-01-03T00:04:25.777Z,0
2018-01-03T00:05:35.480Z,0
2018-01-03T00:06:44.935Z,0
2018-01-03T00:07:54.634Z,0
2018-01-03T00:09:04.315Z,0
2018-01-03T00:10:14.261Z,0
2018-01-03T00:11:24.193Z,0
2018-01-03T00:12:33.867Z,0
2018-01-03T00:13:43.801Z,0
2018-01-03T00:14:53.751Z,0
2018-01-03T00:16:03.451Z,0
2018-01-03T00:17:13.388Z,0
2018-01-03T00:18:23.120Z,0
2018-01-03T00:19:32.815Z,0
2018-01-03T00:20:42.759Z,0
2018-01-03T00:21:52.442Z,0
2018-01-03T00:23:02.134Z,0
2018-01-03T00:24:11.823Z,0
2018-01-03T00:25:21.799Z,0
2018-01-03T00:26:31.730Z,0
2018-01-03T00:27:41.426Z,0
2018-01-03T00:28:51.118Z,0
2018-01-03T00:30:00.794Z,0
2018-01-03T00:31:10.740Z,0
2018-01-03T00:32:20.431Z,0
2018-01-03T00:33:30.375Z,0
2018-01-03T00:34:40.340Z,0
2018-01-03T00:35:50.322Z,0
2018-01-03T00:37:00.011Z,0
2018-01-03T00:38:09.970Z,0
2018-01-03T00:39:19.654Z,0
2018-01-03T00:40:29.092Z,0
2018-01-03T00:41:38.776Z,0
2018-01-03T00:42:48.716Z,0
2018-01-03T00:43:58.411Z,0
2018-01-03T00:45:08.368Z,0
2018-01-03T00:46:18.324Z,0
2018-01-03T00:47:28.269Z,0
2018-01-03T00:48:38.219Z,0
2018-01-03T00:49:48.168Z,0
2018-01-03T00:50:57.846Z,0
2018-01-03T00:52:07.795Z,0
2018-01-03T00:53:17.734Z,0
2018-01-03T00:54:27.738Z,0
2018-01-03T00:55:37.445Z,0
2018-01-03T00:56:47.399Z,0
2018-01-03T00:57:57.341Z,0
2018-01-03T00:59:07.073Z,0
2018-01-03T01:00:17.011Z,0
2018-01-03T01:01:26.956Z,0
2018-01-03T01:02:36.901Z,0
2018-01-03T01:03:46.594Z,0
2018-01-03T01:04:56.530Z,0
2018-01-03T01:06:06.487Z,0
2018-01-03T01:07:16.179Z,0
2018-01-03T01:08:26.113Z,0
2018-01-03T01:09:36.053Z,0
2018-01-03T01:10:45.741Z,0
2018-01-03T01:11:55.675Z,0
2018-01-03T01:13:05.359Z,0
2018-01-03T01:14:15.311Z,0
2018-01-03T01:15:25.261Z,0
2018-01-03T01:16:35.230Z,0
2018-01-03T01:17:45.177Z,0
2018-01-03T01:18:54.884Z,0
2018-01-03T01:20:04.854Z,0
2018-01-03T01:21:14.788Z,0
2018-01-03T01:22:24.483Z,0
2018-01-03T01:23:34.420Z,0
2018-01-03T01:24:44.100Z,0
2018-01-03T01:25:53.527Z,0
2018-01-03T01:27:03.480Z,0
2018-01-03T01:28:13.188Z,0
2018-01-03T01:29:22.888Z,0
2018-01-03T01:30:32.827Z,0
2018-01-03T01:31:42.533Z,0
2018-01-03T01:32:51.977Z,0
2018-01-03T01:34:01.677Z,0
2018-01-03T01:35:11.625Z,0
2018-01-03T01:36:21.325Z,0
2018-01-03T01:37:31.309Z,0
2018-01-03T01:38:41.261Z,0
2018-01-03T01:39:51.205Z,0
2018-01-03T01:41:01.148Z,0
2018-01-03T01:42:11.087Z,0
2018-01-03T01:43:21.040Z,0
2018-01-03T01:44:30.973Z,0
2018-01-03T01:45:40.921Z,0
2018-01-03T01:46:50.612Z,0
2018-01-03T01:48:00.573Z,0
2018-01-03T01:49:10.512Z,0
2018-01-03T01:50:20.445Z,0
2018-01-03T01:51:30.396Z,0
2018-01-03T01:52:40.348Z,0
2018-01-03T01:53:50.031Z,0
2018-01-03T01:54:59.965Z,0
2018-01-03T01:56:09.689Z,0
2018-01-03T01:57:19.379Z,0
2018-01-03T01:58:29.057Z,0
2018-01-03T01:59:38.754Z,0
2018-01-03T02:00:48.697Z,0
2018-01-03T02:01:58.630Z,0
2018-01-03T02:03:08.607Z,0
2018-01-03T02:04:18.613Z,0
2018-01-03T02:05:28.299Z,0
2018-01-03T02:06:37.985Z,0
2018-01-03T02:07:47.918Z,0
2018-01-03T02:08:57.603Z,0
2018-01-03T02:10:07.022Z,0
2018-01-03T02:11:16.968Z,0
2018-01-03T02:12:26.912Z,0
2018-01-03T02:13:36.329Z,0
2018-01-03T02:14:46.267Z,0
2018-01-03T02:15:55.954Z,0
2018-01-03T02:17:05.897Z,0
2018-01-03T02:18:15.854Z,0
2018-01-03T02:19:25.549Z,0
2018-01-03T02:20:35.501Z,0
2018-01-03T02:21:45.436Z,0
2018-01-03T02:22:55.371Z,0
2018-01-03T02:24:05.366Z,0
2018-01-03T02:25:15.059Z,0
2018-01-03T02:26:24.997Z,0
2018-01-03T02:27:34.678Z,0
2018-01-03T02:28:44.612Z,0
2018-01-03T02:29:54.312Z,0
2018-01-03T02:31:04.007Z,0
2018-01-03T02:32:13.697Z,0
2018-01-03T02:33:23.142Z,0
2018-01-03T02:34:32.837Z,0
2018-01-03T02:35:42.798Z,0
2018-01-03T02:36:52.751Z,0
2018-01-03T02:38:02.692Z,0
2018-01-03T02:39:12.599Z,0
2018-01-03T02:40:22.546Z,0
2018-01-03T02:41:32.512Z,0
2018-01-03T02:42:42.265Z,0
2018-01-03T02:43:51.945Z,0
2018-01-03T02:45:01.653Z,0
2018-01-03T02:46:11.607Z,0
2018-01-03T02:47:21.301Z,0
2018-01-03T02:48:31.255Z,0
2018-01-03T02:49:41.197Z,0
2018-01-03T02:50:50.888Z,0
2018-01-03T02:52:00.837Z,0
2018-01-03T02:53:10.783Z,0
2018-01-03T02:54:20.723Z,0
2018-01-03T02:55:30.677Z,0
2018-01-03T02:56:40.617Z,0
2018-01-03T02:57:50.551Z,0
2018-01-03T02:59:00.512Z,0
2018-01-03T03:00:09.935Z,0
2018-01-03T03:01:19.617Z,0
2018-01-03T03:02:29.553Z,0
2018-01-03T03:03:39.248Z,0
2018-01-03T03:04:48.920Z,0
2018-01-03T03:05:58.871Z,0
2018-01-03T03:07:08.818Z,0
2018-01-03T03:08:18.770Z,0
2018-01-03T03:09:28.724Z,0
2018-01-03T03:10:38.404Z,0
2018-01-03T03:11:48.090Z,0
2018-01-03T03:12:58.036Z,0
2018-01-03T03:14:07.721Z,0
2018-01-03T03:15:17.404Z,0
2018-01-03T03:16:27.340Z,0
2018-01-03T03:17:37.274Z,0
2018-01-03T03:18:47.226Z,0
2018-01-03T03:19:57.195Z,0
2018-01-03T03:21:06.889Z,0
2018-01-03T03:22:16.818Z,0
2018-01-03T03:23:26.766Z,0
2018-01-03T03:24:36.707Z,0
2018-01-03T03:25:46.653Z,0
2018-01-03T03:26:56.328Z,0
2018-01-03T03:28:06.266Z,0
2018-01-03T03:29:16.224Z,0
2018-01-03T03:30:25.910Z,0
2018-01-03T03:31:35.843Z,0
2018-01-03T03:32:45.781Z,0
2018-01-03T03:33:55.716Z,0
2018-01-03T03:35:05.399Z,0
2018-01-03T03:36:14.818Z,0
2018-01-03T03:37:24.489Z,0
2018-01-03T03:38:34.430Z,0
2018-01-03T03:39:44.360Z,0
2018-01-03T03:40:54.316Z,0
2018-01-03T03:42:04.275Z,0
2018-01-03T03:43:14.214Z,0
2018-01-03T03:44:24.183Z,0
2018-01-03T03:45:34.115Z,0
2018-01-03T03:46:43.790Z,0
2018-01-03T03:47:53.577Z,0
2018-01-03T03:49:36.339Z,0
2018-01-03T03:50:46.322Z,0
2018-01-03T03:52:28.109Z,0
2018-01-03T03:53:37.813Z,0
2018-01-03T03:54:47.494Z,0
2018-01-03T03:55:57.465Z,0
2018-01-03T03:57:07.402Z,0
2018-01-03T03:58:17.086Z,0
2018-01-03T03:59:26.775Z,0
2018-01-03T04:00:36.469Z,0
2018-01-03T04:01:46.143Z,0
2018-01-03T04:02:55.826Z,0
2018-01-03T04:04:05.769Z,0
2018-01-03T04:05:15.783Z,0
2018-01-03T04:06:25.739Z,0
2018-01-03T04:07:35.427Z,0
2018-01-03T04:08:44.876Z,0
2018-01-03T04:09:54.837Z,0
2018-01-03T04:11:04.778Z,0
2018-01-03T04:12:14.735Z,0
2018-01-03T04:13:24.677Z,0
2018-01-03T04:14:34.111Z,0
2018-01-03T04:15:43.798Z,0
2018-01-03T04:16:53.735Z,0
2018-01-03T04:18:03.415Z,0
2018-01-03T04:19:13.412Z,0
2018-01-03T04:20:23.434Z,0
2018-01-03T04:21:33.376Z,0
2018-01-03T04:22:43.323Z,0
2018-01-03T04:23:53.270Z,0
2018-01-03T04:25:02.957Z,0
2018-01-03T04:26:12.900Z,0
2018-01-03T04:27:22.835Z,0
2018-01-03T04:28:32.512Z,0
2018-01-03T04:29:41.936Z,0
2018-01-03T04:30:51.871Z,0
2018-01-03T04:32:01.555Z,0
2018-01-03T04:33:11.248Z,0
2018-01-03T04:34:21.217Z,0
2018-01-03T04:35:30.900Z,0
2018-01-03T04:36:40.832Z,0
2018-01-03T04:37:50.781Z,0
2018-01-03T04:39:00.206Z,0
2018-01-03T04:40:10.153Z,0
2018-01-03T04:41:19.577Z,0
2018-01-03T04:42:29.515Z,0
2018-01-03T04:43:39.452Z,0
2018-01-03T04:44:49.141Z,0
2018-01-03T04:45:59.105Z,0
2018-01-03T04:47:09.057Z,0
2018-01-03T04:48:19.000Z,0
2018-01-03T04:49:28.935Z,0
2018-01-03T04:50:38.886Z,0
2018-01-03T04:51:48.825Z,0
2018-01-03T04:52:58.763Z,0
2018-01-03T04:54:08.456Z,0
2018-01-03T04:55:18.397Z,0
2018-01-03T04:56:28.093Z,0
2018-01-03T04:57:38.026Z,0
2018-01-03T04:58:47.704Z,0
2018-01-03T04:59:57.647Z,0
2018-01-03T05:01:07.594Z,0
2018-01-03T05:02:17.019Z,0
2018-01-03T05:03:26.700Z,0
2018-01-03T05:04:36.639Z,0
2018-01-03T05:05:46.585Z,0
2018-01-03T05:06:56.267Z,0
2018-01-03T05:08:06.210Z,0
2018-01-03T05:09:15.646Z,0
2018-01-03T05:10:25.578Z,0
2018-01-03T05:11:35.529Z,0
2018-01-03T05:12:45.485Z,0
2018-01-03T05:13:55.419Z,0
2018-01-03T05:15:05.354Z,0
2018-01-03T05:16:15.302Z,0
2018-01-03T05:17:24.984Z,0
2018-01-03T05:18:34.667Z,0
2018-01-03T05:19:44.353Z,0
2018-01-03T05:20:54.030Z,0
2018-01-03T05:22:03.959Z,0
2018-01-03T05:23:13.903Z,0
2018-01-03T05:24:23.597Z,0
2018-01-03T05:25:33.586Z,0
2018-01-03T05:26:43.528Z,0
2018-01-03T05:27:53.212Z,0
2018-01-03T05:29:03.148Z,0
2018-01-03T05:30:13.135Z,0
2018-01-03T05:31:23.086Z,0
2018-01-03T05:32:33.113Z,0
2018-01-03T05:33:42.801Z,0
2018-01-03T05:34:52.516Z,0
2018-01-03T05:36:02.203Z,0
2018-01-03T05:37:11.892Z,0
2018-01-03T05:38:21.326Z,0
2018-01-03T05:39:31.268Z,0
2018-01-03T05:40:41.206Z,0
2018-01-03T05:41:50.886Z,0
2018-01-03T05:43:00.838Z,0
2018-01-03T05:44:10.515Z,0
2018-01-03T05:45:20.456Z,0
2018-01-03T05:46:30.391Z,0
2018-01-03T05:47:40.076Z,0
2018-01-03T05:48:49.764Z,0
2018-01-03T05:49:59.727Z,0
2018-01-03T05:51:09.670Z,0
2018-01-03T05:52:19.614Z,0
2018-01-03T05:53:29.543Z,0
2018-01-03T05:54:39.477Z,0
2018-01-03T05:55:49.160Z,0
2018-01-03T05:56:59.088Z,0
2018-01-03T05:58:09.038Z,0
2018-01-03T05:59:18.986Z,0
2018-01-03T06:00:28.932Z,0
2018-01-03T06:01:38.621Z,0
2018-01-03T06:02:48.319Z,0
2018-01-03T06:03:57.745Z,0
2018-01-03T06:05:07.690Z,0
2018-01-03T06:06:17.370Z,0
2018-01-03T06:07:27.316Z,0
2018-01-03T06:08:37.260Z,0
2018-01-03T06:09:47.203Z,0
2018-01-03T06:10:56.908Z,0
2018-01-03T06:12:06.352Z,0
2018-01-03T06:13:15.781Z,0
2018-01-03T06:14:25.720Z,0
2018-01-03T06:15:34.897Z,0
2018-01-03T06:16:44.576Z,0
2018-01-03T06:17:54.533Z,0
2018-01-03T06:19:04.479Z,0
2018-01-03T06:20:14.180Z,0
2018-01-03T06:21:23.904Z,0
2018-01-03T06:22:33.862Z,0
2018-01-03T06:23:43.813Z,0
2018-01-03T06:24:53.285Z,0
2018-01-03T06:26:03.238Z,0
2018-01-03T06:27:12.913Z,0
2018-01-03T06:28:22.880Z,0
2018-01-03T06:29:32.391Z,0
2018-01-03T06:30:42.359Z,0
2018-01-03T06:31:52.421Z,0
2018-01-03T06:33:02.377Z,0
2018-01-03T06:34:12.082Z,0
2018-01-03T06:35:22.023Z,0
2018-01-03T06:36:31.706Z,0
2018-01-03T06:37:41.661Z,0
2018-01-03T06:38:51.589Z,0
2018-01-03T06:40:01.279Z,0
2018-01-03T06:41:11.228Z,0
2018-01-03T06:42:21.195Z,0
2018-01-03T06:43:30.887Z,0
2018-01-03T06:44:40.843Z,0
2018-01-03T06:45:50.581Z,0
2018-01-03T06:47:00.540Z,0
2018-01-03T06:48:10.505Z,0
2018-01-03T06:49:20.188Z,0
2018-01-03T06:50:30.136Z,0
2018-01-03T06:51:40.095Z,0
2018-01-03T06:52:49.532Z,0
2018-01-03T06:53:59.490Z,0
2018-01-03T06:55:09.438Z,0
2018-01-03T06:56:19.389Z,4
2018-01-03T06:57:29.336Z,4
2018-01-03T06:58:39.027Z,4
2018-01-03T06:59:48.736Z,8
2018-01-03T07:00:58.687Z,8
2018-01-03T07:02:08.635Z,12
2018-01-03T07:03:18.330Z,12
2018-01-03T07:04:28.284Z,12
2018-01-03T07:05:37.969Z,20
2018-01-03T07:06:47.671Z,32
2018-01-03T07:07:57.621Z,48
2018-01-03T07:09:07.574Z,52
2018-01-03T07:10:17.536Z,44
2018-01-03T07:11:27.502Z,48
2018-01-03T07:12:37.176Z,56
2018-01-03T07:13:47.119Z,56
2018-01-03T07:14:57.071Z,52
2018-01-03T07:16:07.033Z,48
2018-01-03T07:17:17.007Z,48
2018-01-03T07:18:27.016Z,52
2018-01-03T07:19:36.713Z,64
2018-01-03T07:20:46.691Z,84
2018-01-03T07:21:56.651Z,84
2018-01-03T07:23:06.359Z,92
2018-01-03T07:24:16.061Z,72
2018-01-03T07:25:26.004Z,60
2018-01-03T07:26:35.949Z,72
2018-01-03T07:27:45.379Z,72
2018-01-03T07:28:55.332Z,84
2018-01-03T07:30:05.277Z,100
2018-01-03T07:31:41.541Z,108
2018-01-03T07:32:52.440Z,96
2018-01-03T07:34:24.097Z,112
2018-01-03T07:35:37.947Z,136
2018-01-03T07:36:47.641Z,132
2018-01-03T07:37:58.474Z,152
2018-01-03T07:39:08.189Z,156
2018-01-03T07:40:18.190Z,108
2018-01-03T07:41:28.149Z,96
2018-01-03T07:42:38.420Z,96
2018-01-03T07:43:48.374Z,92
2018-01-03T07:44:58.331Z,76
2018-01-03T07:46:08.288Z,68
2018-01-03T07:47:17.976Z,64
2018-01-03T07:48:28.477Z,72
2018-01-03T07:49:39.055Z,96
2018-01-03T07:50:49.288Z,104
2018-01-03T07:51:58.983Z,104
2018-01-03T07:53:08.927Z,120
2018-01-03T07:54:18.891Z,104
2018-01-03T07:55:28.859Z,104
2018-01-03T07:56:38.617Z,112
2018-01-03T07:57:48.583Z,144
2018-01-03T07:58:58.538Z,116
2018-01-03T08:00:08.512Z,124
2018-01-03T08:01:18.219Z,116
2018-01-03T08:02:27.937Z,136
2018-01-03T08:03:37.901Z,136
2018-01-03T08:04:47.352Z,132
2018-01-03T08:05:57.054Z,124
2018-01-03T08:07:11.962Z,152
2018-01-03T08:08:21.922Z,204
2018-01-03T08:09:31.931Z,212
2018-01-03T08:10:41.641Z,204
2018-01-03T08:11:51.632Z,200
2018-01-03T08:13:01.697Z,188
2018-01-03T08:14:11.398Z,260
2018-01-03T08:15:21.346Z,404
2018-01-03T08:16:31.052Z,332
2018-01-03T08:17:41.013Z,444
2018-01-03T08:18:50.950Z,432
2018-01-03T08:20:00.660Z,500
2018-01-03T08:21:10.641Z,496
2018-01-03T08:22:20.354Z,508
2018-01-03T08:23:30.317Z,584
2018-01-03T08:24:40.026Z,476
2018-01-03T08:25:49.740Z,488
2018-01-03T08:26:59.689Z,420
2018-01-03T08:28:09.651Z,396
2018-01-03T08:29:19.597Z,484
2018-01-03T08:30:29.552Z,512
2018-01-03T08:31:39.238Z,556
2018-01-03T08:32:49.224Z,500
2018-01-03T08:33:59.196Z,576
2018-01-03T08:35:09.192Z,732
2018-01-03T08:36:19.154Z,744
2018-01-03T08:37:29.163Z,732
2018-01-03T08:38:39.152Z,688
2018-01-03T08:39:49.130Z,772
2018-01-03T08:40:59.118Z,940
2018-01-03T08:42:09.075Z,936
2018-01-03T08:43:19.027Z,948
2018-01-03T08:44:28.730Z,916
2018-01-03T08:45:38.679Z,956
2018-01-03T08:46:48.396Z,848
2018-01-03T08:47:58.345Z,1072
2018-01-03T08:49:08.054Z,972
2018-01-03T08:50:18.005Z,596
2018-01-03T08:51:27.994Z,572
2018-01-03T08:52:37.935Z,828
2018-01-03T08:53:47.636Z,532
2018-01-03T08:54:57.426Z,800
2018-01-03T08:56:07.402Z,1072
2018-01-03T08:57:17.104Z,812
2018-01-03T08:58:26.816Z,676
2018-01-03T08:59:36.542Z,572
2018-01-03T09:00:46.505Z,620
2018-01-03T09:03:43.283Z,928
2018-01-03T09:05:56.915Z,1464
2018-01-03T09:07:06.879Z,2004
2018-01-03T09:08:16.848Z,1732
2018-01-03T09:09:26.821Z,1468
2018-01-03T09:10:36.802Z,1088
2018-01-03T09:11:46.816Z,1264
2018-01-03T09:12:56.777Z,1656
2018-01-03T09:14:06.485Z,1620
2018-01-03T09:15:15.924Z,1816
2018-01-03T09:16:25.877Z,1672
2018-01-03T09:17:35.856Z,1600
2018-01-03T09:18:45.817Z,1800
2018-01-03T09:19:55.794Z,2192
2018-01-03T09:21:05.745Z,2076
2018-01-03T09:22:15.438Z,2348
2018-01-03T09:23:25.422Z,2276
2018-01-03T09:24:35.134Z,1972
2018-01-03T09:25:45.120Z,2348
2018-01-03T09:26:54.839Z,2324
2018-01-03T09:28:04.820Z,2948
2018-01-03T09:29:14.773Z,3204
2018-01-03T09:30:24.759Z,3772
2018-01-03T09:31:34.683Z,3516
2018-01-03T09:32:44.661Z,2644
2018-01-03T09:33:54.102Z,2548
2018-01-03T09:35:04.084Z,2336
2018-01-03T09:36:14.049Z,2320
2018-01-03T09:37:23.760Z,2792
2018-01-03T09:38:33.481Z,2380
2018-01-03T09:39:43.450Z,2508
2018-01-03T09:40:53.169Z,2196
2018-01-03T09:42:03.169Z,1916
2018-01-03T09:43:13.209Z,1720
2018-01-03T09:44:22.934Z,1364
2018-01-03T09:45:32.917Z,1524
2018-01-03T09:46:42.883Z,1924
2018-01-03T09:47:52.590Z,1804
2018-01-03T09:49:02.532Z,2196
2018-01-03T09:50:12.494Z,2316
2018-01-03T09:51:22.461Z,2528
2018-01-03T09:52:32.162Z,1860
2018-01-03T09:53:42.113Z,2260
2018-01-03T09:54:51.807Z,2112
2018-01-03T09:56:01.771Z,2124
2018-01-03T09:57:11.746Z,1780
2018-01-03T09:58:21.714Z,2068
2018-01-03T09:59:31.406Z,2540
2018-01-03T10:00:41.352Z,2340
2018-01-03T10:01:51.308Z,2132
2018-01-03T10:03:00.994Z,1712
2018-01-03T10:04:10.685Z,1832
2018-01-03T10:05:20.892Z,2000
2018-01-03T10:06:30.856Z,1888
2018-01-03T10:07:40.823Z,2024
2018-01-03T10:08:50.768Z,2060
2018-01-03T10:10:00.727Z,2388
2018-01-03T10:11:10.166Z,2936
2018-01-03T10:12:20.348Z,2632
2018-01-03T10:14:33.971Z,2652
2018-01-03T10:15:43.934Z,2528
2018-01-03T10:16:53.895Z,3020
2018-01-03T10:18:03.873Z,2868
2018-01-03T10:19:13.834Z,3616
2018-01-03T10:20:27.061Z,3908
2018-01-03T10:22:08.847Z,3780
2018-01-03T10:25:00.097Z,4812
2018-01-03T10:26:09.547Z,4896
2018-01-03T10:27:19.518Z,4864
2018-01-03T10:28:29.490Z,3636
2018-01-03T10:29:39.452Z,3300
2018-01-03T10:30:49.151Z,3564
2018-01-03T10:31:59.102Z,4240
2018-01-03T10:33:09.076Z,4148
2018-01-03T10:34:18.767Z,3568
2018-01-03T10:35:28.723Z,3428
2018-01-03T10:36:38.678Z,3232
2018-01-03T10:37:48.663Z,4048
2018-01-03T10:38:58.119Z,4212
2018-01-03T10:40:08.096Z,4576
2018-01-03T10:41:18.062Z,4840
2018-01-03T10:42:28.028Z,6124
2018-01-03T10:43:37.982Z,5472
2018-01-03T10:44:47.981Z,5132
2018-01-03T10:45:57.998Z,6248
2018-01-03T10:47:07.450Z,6744
2018-01-03T10:48:17.429Z,7052
2018-01-03T10:49:27.115Z,8436
2018-01-03T10:50:36.806Z,8776
2018-01-03T10:51:47.035Z,8452
2018-01-03T10:52:56.733Z,7364
2018-01-03T10:54:06.687Z,6212
2018-01-03T10:55:16.649Z,5540
2018-01-03T10:56:26.609Z,4848
2018-01-03T10:57:36.595Z,3868
2018-01-03T10:58:46.348Z,3372
2018-01-03T10:59:56.314Z,2992
2018-01-03T11:01:06.352Z,3612
2018-01-03T11:02:16.082Z,5468
2018-01-03T11:03:26.056Z,7728
2018-01-03T11:04:36.074Z,9324
2018-01-03T11:05:46.072Z,9540
2018-01-03T11:06:56.096Z,8476
2018-01-03T11:08:06.044Z,6984
2018-01-03T11:09:16.013Z,6596
2018-01-03T11:10:25.474Z,7432
2018-01-03T11:11:35.499Z,8320
2018-01-03T11:12:45.200Z,8652
2018-01-03T11:13:54.655Z,8000
2018-01-03T11:15:04.608Z,7128
2018-01-03T11:16:14.339Z,6240
2018-01-03T11:17:24.278Z,5672
2018-01-03T11:18:34.240Z,5680
2018-01-03T11:19:43.939Z,6584
2018-01-03T11:20:53.651Z,7496
2018-01-03T11:22:03.662Z,9296
2018-01-03T11:23:13.657Z,10940
2018-01-03T11:24:23.871Z,11020
2018-01-03T11:25:33.562Z,9984
2018-01-03T11:26:43.543Z,7988
2018-01-03T11:27:53.740Z,6380
2018-01-03T11:29:03.697Z,5188
2018-01-03T11:30:13.412Z,5348
2018-01-03T11:31:23.377Z,7112
2018-01-03T11:32:33.097Z,8824
2018-01-03T11:33:42.804Z,9660
2018-01-03T11:34:52.550Z,9752
2018-01-03T11:36:02.568Z,8752
2018-01-03T11:37:12.581Z,11400
2018-01-03T11:38:22.281Z,14712
2018-01-03T11:39:32.240Z,16272
2018-01-03T11:40:42.250Z,19488
2018-01-03T11:41:52.220Z,29216
2018-01-03T11:43:02.184Z,17792
2018-01-03T11:44:12.141Z,16040
2018-01-03T11:45:22.150Z,13832
2018-01-03T11:46:31.604Z,13644
2018-01-03T11:47:41.039Z,13744
2018-01-03T11:48:50.747Z,15076
2018-01-03T11:50:00.446Z,20064
2018-01-03T11:51:09.870Z,27424
2018-01-03T11:52:19.810Z,69952
2018-01-03T11:53:29.783Z,79136
2018-01-03T11:54:39.736Z,65888
2018-01-03T11:55:49.728Z,79744
2018-01-03T11:56:59.425Z,64576
2018-01-03T11:58:09.382Z,53760
2018-01-03T11:59:19.339Z,24704
2018-01-03T12:00:29.313Z,30432
2018-01-03T12:01:39.288Z,18208
2018-01-03T12:02:49.002Z,16428
2018-01-03T12:03:58.955Z,17024
2018-01-03T12:05:08.680Z,19008
2018-01-03T12:06:18.384Z,16992
2018-01-03T12:07:28.082Z,13268
2018-01-03T12:08:37.786Z,12100
2018-01-03T12:09:47.756Z,11600
2018-01-03T12:10:57.715Z,11140
2018-01-03T12:12:07.691Z,10308
2018-01-03T12:13:16.607Z,9312
2018-01-03T12:14:26.338Z,8408
2018-01-03T12:15:36.313Z,7236
2018-01-03T12:16:46.013Z,5720
2018-01-03T12:17:55.703Z,4016
2018-01-03T12:19:05.648Z,2920
2018-01-03T12:20:15.609Z,2880
2018-01-03T12:21:25.565Z,2132
2018-01-03T12:22:35.261Z,2800
2018-01-03T12:23:44.980Z,3408
2018-01-03T12:24:54.931Z,4440
2018-01-03T12:26:05.124Z,6056
2018-01-03T12:27:15.144Z,9264
2018-01-03T12:28:25.124Z,13108
2018-01-03T12:31:16.933Z,15024
2018-01-03T12:32:36.903Z,15516
2018-01-03T12:37:42.334Z,13032
2018-01-03T12:38:52.327Z,13780
2018-01-03T12:40:02.038Z,12556
2018-01-03T12:41:12.002Z,13832
2018-01-03T12:42:21.703Z,13356
2018-01-03T12:43:31.670Z,15392
2018-01-03T12:44:41.646Z,15060
2018-01-03T12:45:51.625Z,15724
2018-01-03T12:47:01.589Z,13960
2018-01-03T12:48:11.304Z,10104
2018-01-03T12:49:21.368Z,9760
2018-01-03T12:50:31.366Z,9456
2018-01-03T12:51:41.324Z,13700
2018-01-03T12:52:51.303Z,23968
2018-01-03T12:54:01.006Z,17504
2018-01-03T12:55:10.724Z,26432
2018-01-03T12:56:20.428Z,20864
2018-01-03T12:57:30.405Z,24992
2018-01-03T12:58:40.375Z,44512
2018-01-03T12:59:50.070Z,16928
2018-01-03T13:01:00.057Z,10064
2018-01-03T13:02:10.017Z,10436
2018-01-03T13:03:19.980Z,10928
2018-01-03T13:04:29.929Z,10028
2018-01-03T13:05:39.881Z,9380
2018-01-03T13:06:49.588Z,10108
2018-01-03T13:07:59.600Z,11276
2018-01-03T13:09:09.567Z,11660
2018-01-03T13:10:19.535Z,9216
2018-01-03T13:11:29.484Z,10376
2018-01-03T13:12:39.436Z,11372
2018-01-03T13:13:49.405Z,13932
2018-01-03T13:14:59.119Z,6768
2018-01-03T13:16:09.086Z,4736
2018-01-03T13:17:18.988Z,6016
2018-01-03T13:18:28.706Z,6296
2018-01-03T13:19:38.156Z,7528
2018-01-03T13:20:48.109Z,7172
2018-01-03T13:21:58.066Z,7128
2018-01-03T13:23:08.011Z,35968
2018-01-03T13:24:17.976Z,25472
2018-01-03T13:25:27.918Z,8080
2018-01-03T13:26:37.892Z,7900
2018-01-03T13:27:47.838Z,7372
2018-01-03T13:28:57.542Z,6980
2018-01-03T13:30:07.500Z,7004
2018-01-03T13:31:17.452Z,7316
2018-01-03T13:32:27.464Z,18528
2018-01-03T13:33:37.467Z,47936
2018-01-03T13:34:47.437Z,49248
2018-01-03T13:35:57.394Z,34816
2018-01-03T13:37:07.354Z,52064
2018-01-03T13:38:17.308Z,51680
2018-01-03T13:39:27.250Z,49024
2018-01-03T13:40:37.206Z,46336
2018-01-03T13:41:47.156Z,45984
2018-01-03T13:42:57.170Z,45792
2018-01-03T13:44:07.148Z,41216
2018-01-03T13:45:17.106Z,36864
2018-01-03T13:46:27.075Z,40064
2018-01-03T13:47:36.526Z,39776
2018-01-03T13:48:46.485Z,42048
2018-01-03T13:49:56.191Z,39840
2018-01-03T13:51:06.147Z,40160
2018-01-03T13:52:16.111Z,41056
2018-01-03T13:53:26.068Z,37792
2018-01-03T13:54:35.767Z,36288
2018-01-03T13:55:45.716Z,36160
2018-01-03T13:56:55.690Z,33696
2018-01-03T13:58:05.407Z,33024
2018-01-03T13:59:15.364Z,34272
2018-01-03T14:00:25.323Z,33280
2018-01-03T14:01:35.035Z,32064
2018-01-03T14:02:44.753Z,31776
2018-01-03T14:03:54.729Z,10188
2018-01-03T14:05:04.687Z,7908
2018-01-03T14:06:14.641Z,7112
2018-01-03T14:07:24.362Z,10064
2018-01-03T14:08:34.320Z,12552
2018-01-03T14:09:44.289Z,25440
2018-01-03T14:10:53.985Z,27264
2018-01-03T14:12:03.943Z,19520
2018-01-03T14:13:13.920Z,22048
2018-01-03T14:14:23.638Z,17728
2018-01-03T14:15:33.615Z,10616
2018-01-03T14:16:43.616Z,6916
2018-01-03T14:17:53.627Z,4536
2018-01-03T14:19:03.591Z,3968
2018-01-03T14:20:13.582Z,3708
2018-01-03T14:21:23.558Z,3476
2018-01-03T14:22:33.514Z,3228
2018-01-03T14:23:43.484Z,2936
2018-01-03T14:24:53.449Z,2564
2018-01-03T14:26:03.391Z,2152
2018-01-03T14:27:12.826Z,1864
2018-01-03T14:28:22.789Z,1632
2018-01-03T14:29:32.749Z,1480
2018-01-03T14:30:42.709Z,1436
2018-01-03T14:31:52.670Z,1560
2018-01-03T14:33:02.362Z,1776
2018-01-03T14:34:12.326Z,1860
2018-01-03T14:35:22.286Z,1764
2018-01-03T14:36:31.980Z,1620
2018-01-03T14:37:41.934Z,1496
2018-01-03T14:38:51.905Z,1392
2018-01-03T14:40:01.867Z,1280
2018-01-03T14:41:11.591Z,1188
2018-01-03T14:42:21.310Z,1128
2018-01-03T14:43:31.259Z,1008
2018-01-03T14:44:41.205Z,880
2018-01-03T14:45:51.176Z,776
2018-01-03T14:47:01.122Z,696
2018-01-03T14:48:10.830Z,616
2018-01-03T14:49:20.793Z,524
2018-01-03T14:50:30.497Z,452
2018-01-03T14:51:40.191Z,412
2018-01-03T14:52:50.144Z,372
2018-01-03T14:53:59.830Z,356
2018-01-03T14:55:09.544Z,344
2018-01-03T14:56:19.489Z,332
2018-01-03T14:57:29.185Z,308
2018-01-03T14:58:38.903Z,256
2018-01-03T14:59:48.858Z,208
2018-01-03T15:00:58.554Z,184
2018-01-03T15:02:08.295Z,172
2018-01-03T15:03:18.283Z,144
2018-01-03T15:04:28.259Z,112
2018-01-03T15:05:38.249Z,84
2018-01-03T15:06:47.706Z,80
2018-01-03T15:07:57.654Z,76
2018-01-03T15:09:07.356Z,68
2018-01-03T15:10:17.117Z,64
2018-01-03T15:11:26.802Z,60
2018-01-03T15:12:36.505Z,44
2018-01-03T15:13:46.447Z,40
2018-01-03T15:14:56.409Z,36
2018-01-03T15:16:06.358Z,36
2018-01-03T15:17:15.839Z,28
2018-01-03T15:18:25.538Z,24
2018-01-03T15:19:35.496Z,20
2018-01-03T15:20:45.429Z,16
2018-01-03T15:21:55.376Z,16
2018-01-03T15:23:05.376Z,16
2018-01-03T15:24:15.097Z,8
2018-01-03T15:25:25.047Z,8
2018-01-03T15:26:34.990Z,4
2018-01-03T15:27:44.435Z,4
2018-01-03T15:28:54.399Z,4
2018-01-03T15:30:04.379Z,4
2018-01-03T15:31:13.831Z,4
2018-01-03T15:32:23.529Z,0
2018-01-03T15:33:32.983Z,0
2018-01-03T15:34:42.937Z,4
2018-01-03T15:35:52.120Z,4
2018-01-03T15:37:01.817Z,4
2018-01-03T15:38:11.524Z,0
2018-01-03T15:39:21.222Z,0
2018-01-03T15:40:31.185Z,0
2018-01-03T15:41:41.140Z,0
2018-01-03T15:42:51.101Z,0
2018-01-03T15:44:01.054Z,0
2018-01-03T15:45:10.767Z,0
2018-01-03T15:46:20.459Z,0
2018-01-03T15:47:30.424Z,0
2018-01-03T15:48:40.404Z,0
2018-01-03T15:49:50.373Z,0
2018-01-03T15:51:00.330Z,0
2018-01-03T15:52:10.357Z,0
2018-01-03T15:53:19.546Z,0
2018-01-03T15:54:29.536Z,0
2018-01-03T15:55:39.532Z,0
2018-01-03T15:56:49.247Z,0
2018-01-03T15:57:59.197Z,0
2018-01-03T15:59:09.164Z,0
2018-01-03T16:00:19.182Z,0
2018-01-03T16:01:28.884Z,0
2018-01-03T16:02:38.844Z,0
2018-01-03T16:03:49.087Z,0
2018-01-03T16:04:59.039Z,0
2018-01-03T16:06:09.003Z,0
2018-01-03T16:07:18.952Z,0
2018-01-03T16:08:28.910Z,0
2018-01-03T16:09:38.869Z,0
2018-01-03T16:10:48.826Z,0
2018-01-03T16:11:58.771Z,0
2018-01-03T16:13:08.727Z,0
2018-01-03T16:14:18.688Z,0
2018-01-03T16:15:28.388Z,0
2018-01-03T16:16:38.353Z,0
2018-01-03T16:17:48.308Z,0
2018-01-03T16:18:58.245Z,0
2018-01-03T16:20:07.927Z,0
2018-01-03T16:21:17.902Z,0
2018-01-03T16:22:27.600Z,0
2018-01-03T16:23:37.552Z,0
2018-01-03T16:24:47.250Z,0
2018-01-03T16:25:57.215Z,0
2018-01-03T16:27:07.172Z,0
2018-01-03T16:28:17.124Z,0
2018-01-03T16:29:27.137Z,0
2018-01-03T16:30:36.821Z,0
2018-01-03T16:31:46.276Z,0
2018-01-03T16:32:56.261Z,0
2018-01-03T16:34:05.955Z,0
2018-01-03T16:35:15.920Z,0
2018-01-03T16:36:25.623Z,0